sensor_id;sensor_type;location;lat;lon;timestamp;pressure;altitude;pressure_sealevel;temperature;humidity
24336;BME280;33098;52.400;16.880;2022-12-18T00:01:18;102417.25;;;-3.20;81.65
24336;BME280;33098;52.400;16.880;2022-12-18T00:03:46;102421.94;;;-3.20;81.80
24336;BME280;33098;52.400;16.880;2022-12-18T00:06:15;102422.08;;;-3.24;81.58
24336;BME280;33098;52.400;16.880;2022-12-18T00:08:43;102425.52;;;-3.26;81.69
24336;BME280;33098;52.400;16.880;2022-12-18T00:11:15;102429.19;;;-3.24;81.78
24336;BME280;33098;52.400;16.880;2022-12-18T00:13:43;102432.02;;;-3.18;81.73
24336;BME280;33098;52.400;16.880;2022-12-18T00:16:15;102430.55;;;-3.08;82.04
24336;BME280;33098;52.400;16.880;2022-12-18T00:18:42;102432.10;;;-3.11;81.78
24336;BME280;33098;52.400;16.880;2022-12-18T00:21:11;102439.16;;;-3.18;81.55
24336;BME280;33098;52.400;16.880;2022-12-18T00:23:39;102438.30;;;-3.16;81.64
24336;BME280;33098;52.400;16.880;2022-12-18T00:26:10;102441.04;;;-3.19;81.39
24336;BME280;33098;52.400;16.880;2022-12-18T00:28:42;102439.73;;;-3.30;81.24
24336;BME280;33098;52.400;16.880;2022-12-18T00:31:11;102440.35;;;-3.20;81.49
24336;BME280;33098;52.400;16.880;2022-12-18T00:33:38;102444.13;;;-3.08;81.72
24336;BME280;33098;52.400;16.880;2022-12-18T00:36:09;102448.74;;;-3.13;81.34
24336;BME280;33098;52.400;16.880;2022-12-18T00:38:35;102449.73;;;-3.35;81.06
24336;BME280;33098;52.400;16.880;2022-12-18T00:41:03;102456.34;;;-3.50;81.02
24336;BME280;33098;52.400;16.880;2022-12-18T00:43:29;102456.00;;;-3.49;81.20
24336;BME280;33098;52.400;16.880;2022-12-18T00:45:56;102455.13;;;-3.63;81.07
24336;BME280;33098;52.400;16.880;2022-12-18T00:48:22;102459.55;;;-3.71;81.11
24336;BME280;33098;52.400;16.880;2022-12-18T00:50:49;102464.52;;;-3.74;81.48
24336;BME280;33098;52.400;16.880;2022-12-18T00:53:17;102469.24;;;-3.72;81.49
24336;BME280;33098;52.400;16.880;2022-12-18T00:55:44;102472.48;;;-3.76;81.46
24336;BME280;33098;52.400;16.880;2022-12-18T00:58:13;102473.07;;;-3.85;81.47
24336;BME280;33098;52.400;16.880;2022-12-18T01:00:41;102475.15;;;-3.84;81.65
24336;BME280;33098;52.400;16.880;2022-12-18T01:03:13;102480.76;;;-3.81;81.59
24336;BME280;33098;52.400;16.880;2022-12-18T01:05:41;102498.64;;;-3.91;81.60
24336;BME280;33098;52.400;16.880;2022-12-18T01:08:08;102505.99;;;-4.10;81.28
24336;BME280;33098;52.400;16.880;2022-12-18T01:10:35;102504.95;;;-4.23;81.42
24336;BME280;33098;52.400;16.880;2022-12-18T01:13:02;102506.84;;;-4.34;81.34
24336;BME280;33098;52.400;16.880;2022-12-18T01:15:28;102503.88;;;-4.35;81.78
24336;BME280;33098;52.400;16.880;2022-12-18T01:17:55;102510.52;;;-4.31;81.76
24336;BME280;33098;52.400;16.880;2022-12-18T01:20:22;102514.16;;;-4.21;82.15
24336;BME280;33098;52.400;16.880;2022-12-18T01:22:48;102518.00;;;-4.30;82.10
24336;BME280;33098;52.400;16.880;2022-12-18T01:25:15;102521.39;;;-4.45;81.75
24336;BME280;33098;52.400;16.880;2022-12-18T01:27:43;102516.80;;;-4.39;82.09
24336;BME280;33098;52.400;16.880;2022-12-18T01:30:10;102520.54;;;-4.34;82.19
24336;BME280;33098;52.400;16.880;2022-12-18T01:32:37;102523.27;;;-4.36;82.13
24336;BME280;33098;52.400;16.880;2022-12-18T01:35:04;102517.60;;;-4.33;82.17
24336;BME280;33098;52.400;16.880;2022-12-18T01:37:30;102514.85;;;-4.31;82.07
24336;BME280;33098;52.400;16.880;2022-12-18T01:39:57;102516.06;;;-4.32;81.92
24336;BME280;33098;52.400;16.880;2022-12-18T01:42:23;102518.73;;;-4.28;82.24
24336;BME280;33098;52.400;16.880;2022-12-18T01:49:57;102526.58;;;-4.35;82.21
24336;BME280;33098;52.400;16.880;2022-12-18T01:52:26;102525.61;;;-4.32;82.09
24336;BME280;33098;52.400;16.880;2022-12-18T01:54:55;102529.14;;;-4.28;82.19
24336;BME280;33098;52.400;16.880;2022-12-18T01:57:23;102526.84;;;-4.41;82.00
24336;BME280;33098;52.400;16.880;2022-12-18T01:59:52;102525.18;;;-4.47;81.98
24336;BME280;33098;52.400;16.880;2022-12-18T02:02:20;102531.34;;;-4.41;82.06
24336;BME280;33098;52.400;16.880;2022-12-18T02:04:47;102535.31;;;-4.32;82.23
24336;BME280;33098;52.400;16.880;2022-12-18T02:07:37;102538.89;;;-4.35;81.91
24336;BME280;33098;52.400;16.880;2022-12-18T02:10:27;102547.83;;;-4.49;81.58
24336;BME280;33098;52.400;16.880;2022-12-18T02:13:26;102553.42;;;-4.67;81.82
24336;BME280;33098;52.400;16.880;2022-12-18T02:16:28;102553.83;;;-4.82;81.74
24336;BME280;33098;52.400;16.880;2022-12-18T02:18:57;102550.48;;;-4.75;81.80
24336;BME280;33098;52.400;16.880;2022-12-18T02:21:37;102552.33;;;-4.88;82.00
24336;BME280;33098;52.400;16.880;2022-12-18T02:26:53;102552.42;;;-4.83;81.96
24336;BME280;33098;52.400;16.880;2022-12-18T02:29:23;102561.91;;;-4.86;82.21
24336;BME280;33098;52.400;16.880;2022-12-18T02:31:56;102558.00;;;-4.99;82.16
24336;BME280;33098;52.400;16.880;2022-12-18T02:34:28;102557.98;;;-4.91;82.26
24336;BME280;33098;52.400;16.880;2022-12-18T02:37:00;102562.04;;;-4.88;82.18
24336;BME280;33098;52.400;16.880;2022-12-18T02:39:29;102562.40;;;-4.95;81.97
24336;BME280;33098;52.400;16.880;2022-12-18T02:41:59;102562.21;;;-5.14;82.16
24336;BME280;33098;52.400;16.880;2022-12-18T02:44:28;102564.27;;;-5.14;82.36
24336;BME280;33098;52.400;16.880;2022-12-18T02:46:55;102565.16;;;-5.13;82.52
24336;BME280;33098;52.400;16.880;2022-12-18T02:49:36;102561.81;;;-5.08;82.58
24336;BME280;33098;52.400;16.880;2022-12-18T02:57:50;102561.42;;;-5.18;82.85
24336;BME280;33098;52.400;16.880;2022-12-18T03:00:22;102563.54;;;-5.25;82.75
24336;BME280;33098;52.400;16.880;2022-12-18T03:03:07;102564.54;;;-5.19;82.94
24336;BME280;33098;52.400;16.880;2022-12-18T03:05:40;102567.36;;;-5.16;83.08
24336;BME280;33098;52.400;16.880;2022-12-18T03:08:16;102562.95;;;-5.03;83.18
24336;BME280;33098;52.400;16.880;2022-12-18T03:10:58;102571.44;;;-5.02;83.07
24336;BME280;33098;52.400;16.880;2022-12-18T03:13:37;102574.00;;;-5.04;82.84
24336;BME280;33098;52.400;16.880;2022-12-18T03:16:08;102576.52;;;-5.00;83.33
24336;BME280;33098;52.400;16.880;2022-12-18T03:18:43;102573.98;;;-4.97;83.20
24336;BME280;33098;52.400;16.880;2022-12-18T03:21:14;102574.84;;;-4.97;83.29
24336;BME280;33098;52.400;16.880;2022-12-18T03:23:48;102575.08;;;-4.94;83.36
24336;BME280;33098;52.400;16.880;2022-12-18T03:26:24;102579.73;;;-4.86;83.35
24336;BME280;33098;52.400;16.880;2022-12-18T03:28:57;102582.95;;;-4.72;83.17
24336;BME280;33098;52.400;16.880;2022-12-18T03:31:29;102580.15;;;-4.64;83.18
24336;BME280;33098;52.400;16.880;2022-12-18T03:34:01;102571.92;;;-4.59;83.38
24336;BME280;33098;52.400;16.880;2022-12-18T03:36:37;102583.20;;;-4.58;83.08
24336;BME280;33098;52.400;16.880;2022-12-18T03:39:04;102591.15;;;-4.60;83.03
24336;BME280;33098;52.400;16.880;2022-12-18T03:41:43;102592.23;;;-4.67;82.73
24336;BME280;33098;52.400;16.880;2022-12-18T03:50:01;102597.70;;;-4.80;82.43
24336;BME280;33098;52.400;16.880;2022-12-18T03:52:54;102601.61;;;-4.92;82.76
24336;BME280;33098;52.400;16.880;2022-12-18T03:55:24;102598.80;;;-5.02;82.78
24336;BME280;33098;52.400;16.880;2022-12-18T03:57:57;102595.04;;;-5.00;82.93
24336;BME280;33098;52.400;16.880;2022-12-18T04:00:26;102595.31;;;-4.95;82.79
24336;BME280;33098;52.400;16.880;2022-12-18T04:02:57;102596.15;;;-4.88;82.96
24336;BME280;33098;52.400;16.880;2022-12-18T04:05:33;102601.30;;;-4.99;82.68
24336;BME280;33098;52.400;16.880;2022-12-18T04:08:02;102602.62;;;-5.11;82.77
24336;BME280;33098;52.400;16.880;2022-12-18T04:10:29;102608.61;;;-5.14;82.75
24336;BME280;33098;52.400;16.880;2022-12-18T04:12:58;102612.63;;;-5.13;83.01
24336;BME280;33098;52.400;16.880;2022-12-18T04:15:25;102607.31;;;-5.18;82.99
24336;BME280;33098;52.400;16.880;2022-12-18T04:17:52;102606.02;;;-5.13;83.09
24336;BME280;33098;52.400;16.880;2022-12-18T04:20:21;102612.63;;;-5.12;83.08
24336;BME280;33098;52.400;16.880;2022-12-18T04:22:47;102613.09;;;-5.15;83.01
24336;BME280;33098;52.400;16.880;2022-12-18T04:25:14;102613.64;;;-5.14;83.25
24336;BME280;33098;52.400;16.880;2022-12-18T04:27:51;102612.89;;;-5.16;83.33
24336;BME280;33098;52.400;16.880;2022-12-18T04:30:18;102619.13;;;-5.16;83.34
24336;BME280;33098;52.400;16.880;2022-12-18T04:32:45;102621.85;;;-5.09;83.81
24336;BME280;33098;52.400;16.880;2022-12-18T04:35:12;102622.40;;;-5.00;83.89
24336;BME280;33098;52.400;16.880;2022-12-18T04:37:40;102632.30;;;-4.99;83.71
24336;BME280;33098;52.400;16.880;2022-12-18T04:40:08;102633.38;;;-5.05;83.63
24336;BME280;33098;52.400;16.880;2022-12-18T04:42:40;102639.66;;;-5.19;83.23
24336;BME280;33098;52.400;16.880;2022-12-18T04:45:07;102641.59;;;-5.26;83.77
24336;BME280;33098;52.400;16.880;2022-12-18T04:47:34;102637.48;;;-5.16;83.77
24336;BME280;33098;52.400;16.880;2022-12-18T04:50:00;102635.71;;;-5.09;83.86
24336;BME280;33098;52.400;16.880;2022-12-18T04:52:27;102636.11;;;-5.07;83.77
24336;BME280;33098;52.400;16.880;2022-12-18T04:54:54;102640.02;;;-5.10;83.91
24336;BME280;33098;52.400;16.880;2022-12-18T04:57:20;102638.46;;;-5.02;84.09
24336;BME280;33098;52.400;16.880;2022-12-18T04:59:47;102644.91;;;-5.00;84.08
24336;BME280;33098;52.400;16.880;2022-12-18T05:02:13;102653.95;;;-4.99;84.00
24336;BME280;33098;52.400;16.880;2022-12-18T05:04:39;102658.33;;;-4.97;84.10
24336;BME280;33098;52.400;16.880;2022-12-18T05:07:06;102659.27;;;-4.93;84.07
24336;BME280;33098;52.400;16.880;2022-12-18T05:09:32;102661.91;;;-4.83;84.09
24336;BME280;33098;52.400;16.880;2022-12-18T05:11:59;102661.30;;;-4.79;83.85
24336;BME280;33098;52.400;16.880;2022-12-18T05:14:25;102661.01;;;-4.76;84.21
24336;BME280;33098;52.400;16.880;2022-12-18T05:16:53;102668.39;;;-4.79;84.02
24336;BME280;33098;52.400;16.880;2022-12-18T05:19:20;102672.13;;;-4.83;84.26
24336;BME280;33098;52.400;16.880;2022-12-18T05:21:46;102667.99;;;-4.82;84.04
24336;BME280;33098;52.400;16.880;2022-12-18T05:24:13;102668.05;;;-4.79;84.08
24336;BME280;33098;52.400;16.880;2022-12-18T05:26:40;102669.69;;;-4.74;83.98
24336;BME280;33098;52.400;16.880;2022-12-18T05:29:06;102669.15;;;-4.84;83.94
24336;BME280;33098;52.400;16.880;2022-12-18T05:31:33;102677.68;;;-4.82;83.97
24336;BME280;33098;52.400;16.880;2022-12-18T05:33:59;102681.45;;;-4.84;84.09
24336;BME280;33098;52.400;16.880;2022-12-18T05:36:26;102681.84;;;-4.82;84.09
24336;BME280;33098;52.400;16.880;2022-12-18T05:38:52;102687.55;;;-4.82;83.99
24336;BME280;33098;52.400;16.880;2022-12-18T05:41:19;102691.44;;;-4.87;83.97
24336;BME280;33098;52.400;16.880;2022-12-18T05:43:45;102692.95;;;-4.89;84.10
24336;BME280;33098;52.400;16.880;2022-12-18T05:46:15;102697.17;;;-4.87;84.31
24336;BME280;33098;52.400;16.880;2022-12-18T05:48:42;102703.04;;;-4.88;84.33
24336;BME280;33098;52.400;16.880;2022-12-18T05:51:12;102709.13;;;-4.94;84.02
24336;BME280;33098;52.400;16.880;2022-12-18T05:53:38;102713.11;;;-4.78;84.57
24336;BME280;33098;52.400;16.880;2022-12-18T05:56:07;102710.69;;;-4.69;84.59
24336;BME280;33098;52.400;16.880;2022-12-18T05:58:35;102711.98;;;-4.66;84.26
24336;BME280;33098;52.400;16.880;2022-12-18T06:01:14;102715.71;;;-4.70;84.18
24336;BME280;33098;52.400;16.880;2022-12-18T06:03:41;102719.21;;;-4.76;84.32
24336;BME280;33098;52.400;16.880;2022-12-18T06:06:21;102727.34;;;-4.77;84.08
24336;BME280;33098;52.400;16.880;2022-12-18T06:08:49;102725.89;;;-4.80;84.17
24336;BME280;33098;52.400;16.880;2022-12-18T06:11:18;102732.44;;;-4.81;84.36
24336;BME280;33098;52.400;16.880;2022-12-18T06:13:46;102737.92;;;-4.84;84.16
24336;BME280;33098;52.400;16.880;2022-12-18T06:16:15;102737.02;;;-4.86;84.27
24336;BME280;33098;52.400;16.880;2022-12-18T06:18:42;102746.92;;;-4.84;84.36
24336;BME280;33098;52.400;16.880;2022-12-18T06:21:08;102752.49;;;-4.91;84.26
24336;BME280;33098;52.400;16.880;2022-12-18T06:23:35;102759.52;;;-5.02;84.02
24336;BME280;33098;52.400;16.880;2022-12-18T06:26:07;102758.02;;;-5.15;84.08
24336;BME280;33098;52.400;16.880;2022-12-18T06:28:34;102759.72;;;-5.23;84.19
24336;BME280;33098;52.400;16.880;2022-12-18T06:31:03;102756.98;;;-5.22;84.30
24336;BME280;33098;52.400;16.880;2022-12-18T06:33:30;102750.27;;;-5.20;84.68
24336;BME280;33098;52.400;16.880;2022-12-18T06:36:05;102753.16;;;-5.08;84.83
24336;BME280;33098;52.400;16.880;2022-12-18T06:38:35;102758.98;;;-5.03;84.91
24336;BME280;33098;52.400;16.880;2022-12-18T06:41:10;102762.64;;;-5.02;85.00
24336;BME280;33098;52.400;16.880;2022-12-18T06:43:37;102759.33;;;-5.03;84.84
24336;BME280;33098;52.400;16.880;2022-12-18T06:46:04;102762.77;;;-5.04;84.70
24336;BME280;33098;52.400;16.880;2022-12-18T06:48:31;102758.66;;;-5.09;84.45
24336;BME280;33098;52.400;16.880;2022-12-18T06:50:59;102760.92;;;-5.08;84.89
24336;BME280;33098;52.400;16.880;2022-12-18T06:53:26;102766.17;;;-4.99;84.68
24336;BME280;33098;52.400;16.880;2022-12-18T06:55:59;102766.90;;;-4.89;84.80
24336;BME280;33098;52.400;16.880;2022-12-18T06:58:26;102768.11;;;-4.83;84.78
24336;BME280;33098;52.400;16.880;2022-12-18T07:00:53;102775.52;;;-4.76;84.85
24336;BME280;33098;52.400;16.880;2022-12-18T07:03:19;102775.08;;;-4.72;84.47
24336;BME280;33098;52.400;16.880;2022-12-18T07:05:46;102782.99;;;-4.75;84.52
24336;BME280;33098;52.400;16.880;2022-12-18T07:08:12;102785.40;;;-4.83;84.52
24336;BME280;33098;52.400;16.880;2022-12-18T07:10:42;102790.70;;;-4.87;84.37
24336;BME280;33098;52.400;16.880;2022-12-18T07:13:09;102797.30;;;-4.79;84.64
24336;BME280;33098;52.400;16.880;2022-12-18T07:15:35;102801.31;;;-4.78;84.37
24336;BME280;33098;52.400;16.880;2022-12-18T07:18:02;102795.83;;;-4.74;84.61
24336;BME280;33098;52.400;16.880;2022-12-18T07:20:29;102795.01;;;-4.72;84.50
24336;BME280;33098;52.400;16.880;2022-12-18T07:22:56;102797.47;;;-4.71;84.38
24336;BME280;33098;52.400;16.880;2022-12-18T07:25:22;102795.58;;;-4.62;84.66
24336;BME280;33098;52.400;16.880;2022-12-18T07:27:49;102796.66;;;-4.53;84.67
24336;BME280;33098;52.400;16.880;2022-12-18T07:30:16;102801.28;;;-4.47;84.39
24336;BME280;33098;52.400;16.880;2022-12-18T07:32:42;102801.67;;;-4.37;84.36
24336;BME280;33098;52.400;16.880;2022-12-18T07:35:09;102803.32;;;-4.25;84.56
24336;BME280;33098;52.400;16.880;2022-12-18T07:37:35;102815.09;;;-4.18;84.43
24336;BME280;33098;52.400;16.880;2022-12-18T07:40:02;102818.66;;;-4.20;84.03
24336;BME280;33098;52.400;16.880;2022-12-18T07:42:28;102829.04;;;-4.38;83.60
24336;BME280;33098;52.400;16.880;2022-12-18T07:44:59;102832.38;;;-4.52;83.47
24336;BME280;33098;52.400;16.880;2022-12-18T07:47:27;102839.13;;;-4.44;83.59
24336;BME280;33098;52.400;16.880;2022-12-18T07:49:54;102844.01;;;-4.43;83.51
24336;BME280;33098;52.400;16.880;2022-12-18T07:52:21;102850.64;;;-4.50;83.35
24336;BME280;33098;52.400;16.880;2022-12-18T07:54:47;102852.58;;;-4.63;83.28
24336;BME280;33098;52.400;16.880;2022-12-18T07:57:16;102853.20;;;-4.81;83.27
24336;BME280;33098;52.400;16.880;2022-12-18T07:59:43;102858.79;;;-4.79;83.52
24336;BME280;33098;52.400;16.880;2022-12-18T08:02:09;102863.64;;;-4.79;83.43
24336;BME280;33098;52.400;16.880;2022-12-18T08:04:36;102864.23;;;-4.83;83.71
24336;BME280;33098;52.400;16.880;2022-12-18T08:07:03;102868.43;;;-4.74;83.85
24336;BME280;33098;52.400;16.880;2022-12-18T08:09:30;102872.54;;;-4.77;83.64
24336;BME280;33098;52.400;16.880;2022-12-18T08:11:56;102876.79;;;-4.87;83.74
24336;BME280;33098;52.400;16.880;2022-12-18T08:14:23;102875.16;;;-4.96;83.81
24336;BME280;33098;52.400;16.880;2022-12-18T08:16:49;102879.93;;;-4.93;84.02
24336;BME280;33098;52.400;16.880;2022-12-18T08:19:15;102881.70;;;-4.92;83.94
24336;BME280;33098;52.400;16.880;2022-12-18T08:21:42;102881.35;;;-4.91;84.00
24336;BME280;33098;52.400;16.880;2022-12-18T08:24:09;102888.03;;;-4.87;84.25
24336;BME280;33098;52.400;16.880;2022-12-18T08:26:38;102880.50;;;-4.84;84.49
24336;BME280;33098;52.400;16.880;2022-12-18T08:29:05;102877.02;;;-4.84;84.70
24336;BME280;33098;52.400;16.880;2022-12-18T08:31:32;102874.48;;;-4.82;84.60
24336;BME280;33098;52.400;16.880;2022-12-18T08:33:59;102872.75;;;-4.75;84.88
24336;BME280;33098;52.400;16.880;2022-12-18T08:36:25;102879.30;;;-4.69;84.84
24336;BME280;33098;52.400;16.880;2022-12-18T08:38:53;102879.34;;;-4.67;84.94
24336;BME280;33098;52.400;16.880;2022-12-18T08:41:20;102878.56;;;-4.63;84.98
24336;BME280;33098;52.400;16.880;2022-12-18T08:43:46;102877.08;;;-4.60;85.02
24336;BME280;33098;52.400;16.880;2022-12-18T08:46:37;102869.11;;;-4.53;85.16
24336;BME280;33098;52.400;16.880;2022-12-18T08:49:05;102866.98;;;-4.38;85.32
24336;BME280;33098;52.400;16.880;2022-12-18T08:51:32;102859.04;;;-4.22;85.50
24336;BME280;33098;52.400;16.880;2022-12-18T08:53:59;102856.63;;;-4.13;85.19
24336;BME280;33098;52.400;16.880;2022-12-18T08:56:25;102853.04;;;-4.19;85.10
24336;BME280;33098;52.400;16.880;2022-12-18T08:58:53;102847.91;;;-4.15;84.98
24336;BME280;33098;52.400;16.880;2022-12-18T09:01:20;102844.66;;;-3.96;85.35
24336;BME280;33098;52.400;16.880;2022-12-18T09:03:48;102842.29;;;-3.84;85.15
24336;BME280;33098;52.400;16.880;2022-12-18T09:06:19;102836.38;;;-3.85;84.91
24336;BME280;33098;52.400;16.880;2022-12-18T09:08:46;102829.43;;;-3.85;84.79
24336;BME280;33098;52.400;16.880;2022-12-18T09:11:22;102828.68;;;-3.97;84.02
24336;BME280;33098;52.400;16.880;2022-12-18T09:13:50;102837.31;;;-4.07;84.18
24336;BME280;33098;52.400;16.880;2022-12-18T09:16:16;102836.78;;;-4.08;84.34
24336;BME280;33098;52.400;16.880;2022-12-18T09:18:43;102843.80;;;-4.04;84.42
24336;BME280;33098;52.400;16.880;2022-12-18T09:21:15;102845.98;;;-4.07;84.36
24336;BME280;33098;52.400;16.880;2022-12-18T09:23:42;102848.78;;;-4.15;84.50
24336;BME280;33098;52.400;16.880;2022-12-18T09:26:10;102851.92;;;-4.05;84.64
24336;BME280;33098;52.400;16.880;2022-12-18T09:28:36;102847.73;;;-3.98;84.65
24336;BME280;33098;52.400;16.880;2022-12-18T09:31:07;102850.83;;;-4.00;84.62
24336;BME280;33098;52.400;16.880;2022-12-18T09:33:35;102856.41;;;-3.98;84.76
24336;BME280;33098;52.400;16.880;2022-12-18T09:36:05;102859.25;;;-3.95;84.89
24336;BME280;33098;52.400;16.880;2022-12-18T09:38:33;102857.50;;;-3.87;84.87
24336;BME280;33098;52.400;16.880;2022-12-18T09:41:04;102858.23;;;-3.76;84.92
24336;BME280;33098;52.400;16.880;2022-12-18T09:44:03;102856.47;;;-3.69;85.02
24336;BME280;33098;52.400;16.880;2022-12-18T09:46:38;102854.59;;;-3.68;84.86
24336;BME280;33098;52.400;16.880;2022-12-18T09:49:12;102859.13;;;-3.66;84.78
24336;BME280;33098;52.400;16.880;2022-12-18T09:51:45;102856.16;;;-3.58;84.99
24336;BME280;33098;52.400;16.880;2022-12-18T09:54:20;102854.42;;;-3.48;84.91
24336;BME280;33098;52.400;16.880;2022-12-18T09:56:48;102854.12;;;-3.46;84.89
24336;BME280;33098;52.400;16.880;2022-12-18T09:59:29;102853.54;;;-3.40;85.08
24336;BME280;33098;52.400;16.880;2022-12-18T10:01:57;102854.25;;;-3.39;85.04
24336;BME280;33098;52.400;16.880;2022-12-18T10:04:24;102854.80;;;-3.27;85.00
24336;BME280;33098;52.400;16.880;2022-12-18T10:06:56;102852.71;;;-3.28;84.96
24336;BME280;33098;52.400;16.880;2022-12-18T10:12:13;102845.95;;;-3.28;84.87
24336;BME280;33098;52.400;16.880;2022-12-18T10:14:50;102842.33;;;-3.26;84.99
24336;BME280;33098;52.400;16.880;2022-12-18T10:17:42;102841.02;;;-3.11;85.05
24336;BME280;33098;52.400;16.880;2022-12-18T10:23:21;102853.52;;;-2.89;84.96
24336;BME280;33098;52.400;16.880;2022-12-18T10:25:57;102858.40;;;-2.89;84.71
24336;BME280;33098;52.400;16.880;2022-12-18T10:28:29;102863.48;;;-2.87;84.78
24336;BME280;33098;52.400;16.880;2022-12-18T10:30:56;102858.81;;;-2.85;84.55
24336;BME280;33098;52.400;16.880;2022-12-18T10:33:27;102854.81;;;-2.85;84.51
24336;BME280;33098;52.400;16.880;2022-12-18T10:35:55;102858.61;;;-2.75;84.65
24336;BME280;33098;52.400;16.880;2022-12-18T10:38:27;102865.30;;;-2.70;84.45
24336;BME280;33098;52.400;16.880;2022-12-18T10:41:05;102871.29;;;-2.65;84.40
24336;BME280;33098;52.400;16.880;2022-12-18T10:43:39;102872.45;;;-2.57;84.51
24336;BME280;33098;52.400;16.880;2022-12-18T10:48:38;102865.36;;;-2.55;84.27
24336;BME280;33098;52.400;16.880;2022-12-18T10:51:09;102862.96;;;-2.52;84.10
24336;BME280;33098;52.400;16.880;2022-12-18T10:53:36;102862.56;;;-2.56;83.87
24336;BME280;33098;52.400;16.880;2022-12-18T10:56:04;102860.13;;;-2.44;84.36
24336;BME280;33098;52.400;16.880;2022-12-18T10:58:37;102858.44;;;-2.28;84.43
24336;BME280;33098;52.400;16.880;2022-12-18T11:01:16;102860.71;;;-2.27;84.20
24336;BME280;33098;52.400;16.880;2022-12-18T11:03:45;102857.08;;;-2.37;83.92
24336;BME280;33098;52.400;16.880;2022-12-18T11:06:15;102856.30;;;-2.31;84.08
24336;BME280;33098;52.400;16.880;2022-12-18T11:08:43;102852.15;;;-2.30;83.95
24336;BME280;33098;52.400;16.880;2022-12-18T11:11:21;102847.98;;;-2.28;83.95
24336;BME280;33098;52.400;16.880;2022-12-18T11:14:04;102840.71;;;-2.27;83.93
24336;BME280;33098;52.400;16.880;2022-12-18T11:16:43;102836.15;;;-2.28;83.69
24336;BME280;33098;52.400;16.880;2022-12-18T11:19:38;102840.56;;;-2.24;83.82
24336;BME280;33098;52.400;16.880;2022-12-18T11:22:28;102847.95;;;-2.18;83.62
24336;BME280;33098;52.400;16.880;2022-12-18T11:25:00;102847.36;;;-2.09;83.82
24336;BME280;33098;52.400;16.880;2022-12-18T11:27:28;102845.36;;;-2.02;83.74
24336;BME280;33098;52.400;16.880;2022-12-18T11:30:13;102841.61;;;-2.11;83.38
24336;BME280;33098;52.400;16.880;2022-12-18T11:32:48;102829.99;;;-2.20;83.20
24336;BME280;33098;52.400;16.880;2022-12-18T11:35:20;102830.68;;;-2.21;83.21
24336;BME280;33098;52.400;16.880;2022-12-18T11:37:59;102830.50;;;-2.08;83.68
24336;BME280;33098;52.400;16.880;2022-12-18T11:40:36;102829.16;;;-1.89;83.78
24336;BME280;33098;52.400;16.880;2022-12-18T11:43:10;102833.63;;;-1.78;83.67
24336;BME280;33098;52.400;16.880;2022-12-18T11:45:45;102837.76;;;-1.68;83.64
24336;BME280;33098;52.400;16.880;2022-12-18T11:48:22;102830.83;;;-1.64;83.38
24336;BME280;33098;52.400;16.880;2022-12-18T11:50:52;102837.24;;;-1.67;82.93
24336;BME280;33098;52.400;16.880;2022-12-18T11:53:20;102839.70;;;-1.65;82.94
24336;BME280;33098;52.400;16.880;2022-12-18T11:56:21;102840.63;;;-1.59;82.82
24336;BME280;33098;52.400;16.880;2022-12-18T12:11:05;102852.02;;;-1.69;82.00
24336;BME280;33098;52.400;16.880;2022-12-18T12:13:46;102859.59;;;-1.92;81.77
24336;BME280;33098;52.400;16.880;2022-12-18T12:16:29;102861.39;;;-1.88;82.18
24336;BME280;33098;52.400;16.880;2022-12-18T12:19:20;102865.98;;;-1.80;82.31
24336;BME280;33098;52.400;16.880;2022-12-18T12:21:53;102861.11;;;-1.66;82.48
24336;BME280;33098;52.400;16.880;2022-12-18T12:24:49;102864.00;;;-1.57;82.39
24336;BME280;33098;52.400;16.880;2022-12-18T12:30:05;102873.31;;;-1.48;81.91
24336;BME280;33098;52.400;16.880;2022-12-18T12:38:16;102868.49;;;-1.60;80.90
24336;BME280;33098;52.400;16.880;2022-12-18T12:40:50;102871.61;;;-1.76;80.75
24336;BME280;33098;52.400;16.880;2022-12-18T12:43:29;102874.42;;;-1.89;80.55
24336;BME280;33098;52.400;16.880;2022-12-18T12:46:00;102871.89;;;-1.97;80.80
24336;BME280;33098;52.400;16.880;2022-12-18T12:48:55;102870.13;;;-1.99;81.00
24336;BME280;33098;52.400;16.880;2022-12-18T12:51:26;102871.27;;;-1.92;81.28
24336;BME280;33098;52.400;16.880;2022-12-18T12:53:55;102867.20;;;-1.96;81.12
24336;BME280;33098;52.400;16.880;2022-12-18T12:56:26;102865.49;;;-1.93;81.26
24336;BME280;33098;52.400;16.880;2022-12-18T13:01:55;102862.02;;;-2.07;80.93
24336;BME280;33098;52.400;16.880;2022-12-18T13:04:36;102853.92;;;-2.13;81.12
24336;BME280;33098;52.400;16.880;2022-12-18T13:07:20;102850.30;;;-1.97;81.58
24336;BME280;33098;52.400;16.880;2022-12-18T13:15:39;102846.11;;;-1.51;81.92
24336;BME280;33098;52.400;16.880;2022-12-18T13:23:27;102861.95;;;-1.36;81.26
24336;BME280;33098;52.400;16.880;2022-12-18T13:25:55;102857.70;;;-1.42;80.90
24336;BME280;33098;52.400;16.880;2022-12-18T13:36:45;102856.19;;;-1.99;79.90
24336;BME280;33098;52.400;16.880;2022-12-18T13:41:47;102858.60;;;-2.15;80.42
24336;BME280;33098;52.400;16.880;2022-12-18T13:44:39;102863.90;;;-2.09;80.46
24336;BME280;33098;52.400;16.880;2022-12-18T13:49:52;102870.20;;;-1.92;80.79
24336;BME280;33098;52.400;16.880;2022-12-18T13:52:22;102869.09;;;-1.83;80.71
24336;BME280;33098;52.400;16.880;2022-12-18T13:54:55;102861.45;;;-1.82;80.63
24336;BME280;33098;52.400;16.880;2022-12-18T13:57:29;102866.34;;;-1.80;80.48
24336;BME280;33098;52.400;16.880;2022-12-18T13:59:56;102872.52;;;-1.88;80.24
24336;BME280;33098;52.400;16.880;2022-12-18T14:02:25;102873.34;;;-1.92;80.23
24336;BME280;33098;52.400;16.880;2022-12-18T14:04:53;102869.64;;;-1.96;80.10
24336;BME280;33098;52.400;16.880;2022-12-18T14:07:25;102867.94;;;-1.93;80.19
24336;BME280;33098;52.400;16.880;2022-12-18T14:09:55;102862.13;;;-2.11;79.68
24336;BME280;33098;52.400;16.880;2022-12-18T14:12:31;102863.91;;;-2.21;79.92
24336;BME280;33098;52.400;16.880;2022-12-18T14:17:55;102874.97;;;-2.00;80.23